createdAt,value
2022-08-16T00:02:56.599Z,23.88
2022-08-16T00:05:58.785Z,23.94
2022-08-16T00:09:00.844Z,23.94
2022-08-16T00:12:03.763Z,24.06
2022-08-16T00:15:16.987Z,24.00
2022-08-16T00:18:22.239Z,24.00
2022-08-16T00:21:32.991Z,24.06
2022-08-16T00:24:35.069Z,24.00
2022-08-16T00:27:37.139Z,24.06
2022-08-16T00:30:40.166Z,24.06
2022-08-16T00:33:43.210Z,24.06
2022-08-16T00:36:55.955Z,24.06
2022-08-16T00:39:58.821Z,24.06
2022-08-16T00:43:02.133Z,24.06
2022-08-16T00:46:34.735Z,24.06
2022-08-16T00:49:39.687Z,24.06
2022-08-16T00:52:51.084Z,24.06
2022-08-16T00:55:56.167Z,24.00
2022-08-16T00:59:01.220Z,24.13
2022-08-16T01:02:30.839Z,24.06
2022-08-16T01:05:29.941Z,24.00
2022-08-16T01:08:36.934Z,24.06
2022-08-16T01:11:55.019Z,24.13
2022-08-16T01:14:59.308Z,23.94
2022-08-16T01:18:04.440Z,23.88
2022-08-16T01:21:16.525Z,23.88
2022-08-16T01:24:53.831Z,23.94
2022-08-16T01:28:00.544Z,23.88
2022-08-16T01:31:05.336Z,23.88
2022-08-16T01:34:07.904Z,23.88
2022-08-16T01:37:25.572Z,23.94
2022-08-16T01:40:30.369Z,23.88
2022-08-16T01:43:33.566Z,24.00
2022-08-16T01:46:40.779Z,24.00
2022-08-16T01:50:41.166Z,24.00
2022-08-16T01:53:06.479Z,24.00
2022-08-16T01:56:23.466Z,23.94
2022-08-16T01:59:28.355Z,24.06
2022-08-16T02:02:30.554Z,24.00
2022-08-16T02:05:32.956Z,24.00
2022-08-16T02:08:36.992Z,24.00
2022-08-16T02:11:47.303Z,24.00
2022-08-16T02:14:50.980Z,23.94
2022-08-16T02:17:54.829Z,24.00
2022-08-16T02:20:57.020Z,23.94
2022-08-16T02:23:59.707Z,23.94
2022-08-16T02:27:01.930Z,23.88
2022-08-16T02:30:35.887Z,23.94
2022-08-16T02:33:43.510Z,23.88
2022-08-16T02:36:50.550Z,23.94
2022-08-16T02:39:54.161Z,23.88
2022-08-16T02:42:56.903Z,23.88
2022-08-16T02:46:00.042Z,24.00
2022-08-16T02:49:03.107Z,23.88
2022-08-16T02:52:09.026Z,23.94
2022-08-16T02:55:12.342Z,23.94
2022-08-16T02:58:19.748Z,23.88
2022-08-16T03:01:36.433Z,23.94
2022-08-16T03:04:52.395Z,23.94
2022-08-16T03:07:55.027Z,23.81
2022-08-16T03:10:59.236Z,23.75
2022-08-16T03:14:02.594Z,23.81
2022-08-16T03:17:09.705Z,23.94
2022-08-16T03:20:16.272Z,23.81
2022-08-16T03:23:20.643Z,23.81
2022-08-16T03:26:25.510Z,23.81
2022-08-16T03:29:30.546Z,23.81
2022-08-16T03:32:32.768Z,23.75
2022-08-16T03:35:40.165Z,23.81
2022-08-16T03:38:43.121Z,23.75
2022-08-16T03:41:49.867Z,23.75
2022-08-16T03:45:02.832Z,23.88
2022-08-16T03:48:07.294Z,23.88
2022-08-16T03:51:12.461Z,23.81
2022-08-16T03:54:15.277Z,23.81
2022-08-16T03:57:17.842Z,23.81
2022-08-16T04:00:35.967Z,23.75
2022-08-16T04:03:44.294Z,23.75
2022-08-16T04:06:46.572Z,23.81
2022-08-16T04:09:49.330Z,23.75
2022-08-16T04:12:53.439Z,23.69
2022-08-16T04:15:59.377Z,23.69
2022-08-16T04:19:04.812Z,23.69
2022-08-16T04:22:08.515Z,23.63
2022-08-16T04:25:12.538Z,23.69
2022-08-16T04:28:51.633Z,23.69
2022-08-16T04:31:37.577Z,23.69
2022-08-16T04:34:39.847Z,23.69
2022-08-16T04:37:46.700Z,23.69
2022-08-16T04:40:50.038Z,23.69
2022-08-16T04:43:52.465Z,23.69
2022-08-16T04:47:02.782Z,23.81
2022-08-16T04:50:10.943Z,23.75
2022-08-16T04:53:17.008Z,23.69
2022-08-16T04:56:21.642Z,23.75
2022-08-16T04:59:26.933Z,23.69
2022-08-16T05:02:42.284Z,23.75
2022-08-16T05:05:59.561Z,23.63
2022-08-16T05:09:07.210Z,23.69
2022-08-16T05:12:11.084Z,21.94
2022-08-16T05:15:13.574Z,21.50
2022-08-16T05:18:17.117Z,21.31
2022-08-16T05:21:26.988Z,21.31
2022-08-16T05:24:30.514Z,21.19
2022-08-16T05:27:33.426Z,20.88
2022-08-16T05:30:50.260Z,21.00
2022-08-16T05:33:53.423Z,21.13
2022-08-16T05:36:58.761Z,21.06
2022-08-16T05:40:05.981Z,21.19
2022-08-16T05:43:08.530Z,21.06
2022-08-16T05:46:29.868Z,21.31
2022-08-16T05:49:39.770Z,21.31
2022-08-16T05:52:44.764Z,21.25
2022-08-16T05:55:47.314Z,21.13
2022-08-16T05:58:49.421Z,21.19
2022-08-16T06:01:53.376Z,21.38
2022-08-16T06:04:55.689Z,21.56
2022-08-16T06:07:58.381Z,21.38
2022-08-16T06:11:05.689Z,21.44
2022-08-16T06:14:13.350Z,21.38
2022-08-16T06:17:17.139Z,21.38
2022-08-16T06:20:35.317Z,21.38
2022-08-16T06:23:38.536Z,21.13
2022-08-16T06:26:57.292Z,21.25
2022-08-16T06:30:00.317Z,20.94
2022-08-16T06:33:03.802Z,21.31
2022-08-16T06:36:08.982Z,21.50
2022-08-16T06:39:11.523Z,21.63
2022-08-16T06:42:13.974Z,21.63
2022-08-16T06:45:21.523Z,21.69
2022-08-16T06:48:32.776Z,21.56
2022-08-16T06:51:45.884Z,21.63
2022-08-16T06:54:51.049Z,21.69
2022-08-16T06:57:54.517Z,22.00
2022-08-16T07:00:59.563Z,22.00
2022-08-16T07:04:02.932Z,22.06
2022-08-16T07:07:14.533Z,22.13
2022-08-16T07:10:19.846Z,22.50
2022-08-16T07:14:03.754Z,22.31
2022-08-16T07:16:50.174Z,22.75
2022-08-16T07:20:04.036Z,22.38
2022-08-16T07:23:16.013Z,22.13
2022-08-16T07:26:25.714Z,22.50
2022-08-16T07:29:31.561Z,22.44
2022-08-16T07:32:34.434Z,22.38
2022-08-16T07:35:44.434Z,22.88
2022-08-16T07:38:52.291Z,23.44
2022-08-16T07:41:54.464Z,23.31
2022-08-16T07:44:58.053Z,23.50
2022-08-16T07:48:00.339Z,23.50
2022-08-16T07:51:14.259Z,23.63
2022-08-16T07:54:21.215Z,23.56
2022-08-16T07:57:38.068Z,23.69
2022-08-16T08:00:55.947Z,23.50
2022-08-16T08:03:58.446Z,23.63
2022-08-16T08:07:00.607Z,24.00
2022-08-16T08:10:04.819Z,24.19
2022-08-16T08:13:07.779Z,24.38
2022-08-16T08:16:18.415Z,24.38
2022-08-16T08:19:21.426Z,24.50
2022-08-16T08:22:23.593Z,24.50
2022-08-16T08:25:27.683Z,24.69
2022-08-16T08:28:50.086Z,24.81
2022-08-16T08:31:53.768Z,24.75
2022-08-16T08:35:03.368Z,24.75
2022-08-16T08:38:08.390Z,24.75
2022-08-16T08:41:11.903Z,24.81
2022-08-16T08:44:29.413Z,24.81
2022-08-16T08:47:34.053Z,24.88
2022-08-16T08:50:36.640Z,24.94
2022-08-16T08:53:41.589Z,24.94
2022-08-16T08:56:45.994Z,25.00
2022-08-16T08:59:48.575Z,25.00
2022-08-16T09:02:52.170Z,25.00
2022-08-16T09:05:54.652Z,25.06
2022-08-16T09:08:56.963Z,25.13
2022-08-16T09:12:06.613Z,25.19
2022-08-16T09:15:11.563Z,25.19
2022-08-16T09:18:26.403Z,25.19
2022-08-16T09:21:31.487Z,25.19
2022-08-16T09:24:51.424Z,25.19
2022-08-16T09:27:57.835Z,25.25
2022-08-16T09:31:05.894Z,25.19
2022-08-16T09:34:09.198Z,25.25
2022-08-16T09:37:17.915Z,25.25
2022-08-16T09:40:33.001Z,25.25
2022-08-16T09:43:59.131Z,25.38
2022-08-16T09:47:04.079Z,25.31
2022-08-16T09:50:14.445Z,25.38
2022-08-16T09:53:26.789Z,25.31
2022-08-16T09:56:33.761Z,25.38
2022-08-16T09:59:38.388Z,25.38
2022-08-16T10:02:52.635Z,25.38
2022-08-16T10:05:54.814Z,25.31
2022-08-16T10:09:05.397Z,25.25
2022-08-16T10:12:28.273Z,25.31
2022-08-16T10:15:31.298Z,25.44
2022-08-16T10:18:56.361Z,25.38
2022-08-16T10:21:57.795Z,25.44
2022-08-16T10:25:00.469Z,25.44
2022-08-16T10:28:27.812Z,25.38
2022-08-16T10:31:45.529Z,25.50
2022-08-16T10:34:47.831Z,25.44
2022-08-16T10:37:54.583Z,25.50
2022-08-16T10:40:57.052Z,25.44
2022-08-16T10:43:59.460Z,25.50
2022-08-16T10:47:02.499Z,25.38
2022-08-16T10:50:07.437Z,25.38
2022-08-16T10:53:22.072Z,25.38
2022-08-16T10:56:52.498Z,25.31
2022-08-16T10:59:56.164Z,25.25
2022-08-16T11:03:04.460Z,25.31
2022-08-16T11:06:09.553Z,25.31
2022-08-16T11:09:28.755Z,25.38
2022-08-16T11:12:31.347Z,25.56
2022-08-16T11:15:35.184Z,25.56
2022-08-16T11:19:02.973Z,25.63
2022-08-16T11:22:39.513Z,25.63
2022-08-16T11:32:15.686Z,25.69
2022-08-16T11:35:43.949Z,25.81
2022-08-16T11:38:57.085Z,25.81
2022-08-16T11:42:00.725Z,25.88
2022-08-16T11:45:05.113Z,25.94
2022-08-16T11:48:08.459Z,26.00
2022-08-16T11:51:10.571Z,26.06
2022-08-16T11:54:20.885Z,26.19
2022-08-16T11:57:24.549Z,26.19
2022-08-16T12:00:33.608Z,26.25
2022-08-16T12:03:50.133Z,26.63
2022-08-16T12:06:53.795Z,26.31
2022-08-16T12:09:56.849Z,26.50
2022-08-16T12:12:59.054Z,26.56
2022-08-16T12:16:08.166Z,26.63
2022-08-16T12:19:14.115Z,26.63
2022-08-16T12:22:19.086Z,26.50
2022-08-16T12:25:24.288Z,26.63
2022-08-16T12:28:55.133Z,26.63
2022-08-16T12:32:01.587Z,26.63
2022-08-16T12:35:16.292Z,26.63
2022-08-16T12:38:41.556Z,26.63
2022-08-16T12:41:45.007Z,26.63
2022-08-16T12:44:49.479Z,26.69
2022-08-16T12:48:32.545Z,26.63
2022-08-16T12:51:58.452Z,26.69
2022-08-16T12:54:59.804Z,26.94
2022-08-16T12:58:02.342Z,26.88
2022-08-16T13:01:06.028Z,26.81
2022-08-16T13:04:19.458Z,26.94
2022-08-16T13:07:26.897Z,26.94
2022-08-16T13:10:38.146Z,26.88
2022-08-16T13:13:41.494Z,26.81
2022-08-16T13:16:43.640Z,27.25
2022-08-16T13:20:07.771Z,27.06
2022-08-16T13:23:12.704Z,27.06
2022-08-16T13:26:18.588Z,26.88
2022-08-16T13:29:20.742Z,26.75
2022-08-16T13:32:40.624Z,26.81
2022-08-16T13:35:46.070Z,27.31
2022-08-16T13:38:59.585Z,27.06
2022-08-16T13:42:03.062Z,27.13
2022-08-16T13:45:07.600Z,27.31
2022-08-16T13:48:11.134Z,27.13
2022-08-16T13:51:29.389Z,27.13
2022-08-16T13:54:32.979Z,27.13
2022-08-16T13:57:53.571Z,27.31
2022-08-16T14:00:57.782Z,27.13
2022-08-16T14:04:01.652Z,27.25
2022-08-16T14:07:06.831Z,27.25
2022-08-16T14:10:12.966Z,27.25
2022-08-16T14:13:21.145Z,27.63
2022-08-16T14:16:33.673Z,27.81
2022-08-16T14:19:37.118Z,27.69
2022-08-16T14:22:52.487Z,27.50
2022-08-16T14:25:57.710Z,27.50
2022-08-16T14:29:03.107Z,27.44
2022-08-16T14:32:07.132Z,27.44
2022-08-16T14:35:13.456Z,27.69
2022-08-16T14:38:18.699Z,27.81
2022-08-16T14:41:20.989Z,27.63
2022-08-16T14:44:24.253Z,27.56
2022-08-16T14:47:31.620Z,27.63
2022-08-16T14:50:37.293Z,27.44
2022-08-16T14:53:45.367Z,27.56
2022-08-16T14:56:54.744Z,27.94
2022-08-16T15:00:02.013Z,28.06
2022-08-16T15:03:10.743Z,28.13
2022-08-16T15:06:14.292Z,27.94
2022-08-16T15:09:17.015Z,27.81
2022-08-16T15:12:26.959Z,27.75
2022-08-16T15:15:34.794Z,27.75
2022-08-16T15:18:37.416Z,28.13
2022-08-16T15:21:42.222Z,28.00
2022-08-16T15:24:44.425Z,27.81
2022-08-16T15:27:55.146Z,27.75
2022-08-16T15:31:00.987Z,27.69
2022-08-16T15:34:05.719Z,27.75
2022-08-16T15:37:07.943Z,27.69
2022-08-16T15:40:16.333Z,27.94
2022-08-16T15:43:39.413Z,27.81
2022-08-16T15:46:56.253Z,27.81
2022-08-16T15:50:00.908Z,27.75
2022-08-16T15:53:10.585Z,27.81
2022-08-16T15:56:15.039Z,27.94
2022-08-16T15:59:17.772Z,27.81
2022-08-16T16:02:29.448Z,28.00
2022-08-16T16:05:34.032Z,27.94
2022-08-16T16:08:38.994Z,27.81
2022-08-16T16:11:45.785Z,27.81
2022-08-16T16:14:48.573Z,27.81
2022-08-16T16:17:54.464Z,27.75
2022-08-16T16:21:00.782Z,27.75
2022-08-16T16:24:21.184Z,27.75
2022-08-16T16:27:25.828Z,27.75
2022-08-16T16:30:33.237Z,27.75
2022-08-16T16:33:51.243Z,27.75
2022-08-16T16:36:54.389Z,27.75
2022-08-16T16:39:56.909Z,27.69
2022-08-16T16:43:01.421Z,27.63
2022-08-16T16:46:40.586Z,27.69
2022-08-16T16:49:28.113Z,27.69
2022-08-16T16:52:43.345Z,27.69
2022-08-16T16:55:52.120Z,27.63
2022-08-16T16:58:57.688Z,27.56
2022-08-16T17:02:41.317Z,27.56
2022-08-16T17:05:26.958Z,27.50
2022-08-16T17:08:31.237Z,27.31
2022-08-16T17:11:37.512Z,27.31
2022-08-16T17:14:42.770Z,27.31
2022-08-16T17:17:59.636Z,27.25
2022-08-16T17:21:05.079Z,27.19
2022-08-16T17:24:17.849Z,27.13
2022-08-16T17:27:34.020Z,27.13
2022-08-16T17:30:45.231Z,27.06
2022-08-16T17:33:54.499Z,27.06
2022-08-16T17:36:58.759Z,27.06
2022-08-16T17:40:06.183Z,27.06
2022-08-16T17:43:33.090Z,27.00
2022-08-16T17:46:50.683Z,27.00
2022-08-16T17:49:54.907Z,27.00
2022-08-16T17:52:57.819Z,26.94
2022-08-16T17:56:00.389Z,26.94
2022-08-16T17:59:02.436Z,26.94
2022-08-16T18:02:42.166Z,26.88
2022-08-16T18:05:29.700Z,26.94
2022-08-16T18:08:32.150Z,26.88
2022-08-16T18:11:41.081Z,26.88
2022-08-16T18:14:51.406Z,26.81
2022-08-16T18:17:55.402Z,26.81
2022-08-16T18:21:16.254Z,26.81
2022-08-16T18:24:18.944Z,26.81
2022-08-16T18:27:26.298Z,26.81
2022-08-16T18:30:29.304Z,26.75
2022-08-16T18:33:31.547Z,26.75
2022-08-16T18:36:34.649Z,26.75
2022-08-16T18:39:37.661Z,26.75
2022-08-16T18:42:39.747Z,26.75
2022-08-16T18:45:44.909Z,26.75
2022-08-16T18:48:46.964Z,26.69
2022-08-16T18:51:50.654Z,26.63
2022-08-16T18:55:02.235Z,26.63
2022-08-16T18:58:15.817Z,26.63
2022-08-16T19:01:18.419Z,26.50
2022-08-16T19:04:56.174Z,26.38
2022-08-16T19:07:42.617Z,26.31
2022-08-16T19:10:45.856Z,26.31
2022-08-16T19:13:48.380Z,26.19
2022-08-16T19:16:50.430Z,26.19
2022-08-16T19:19:52.523Z,26.06
2022-08-16T19:23:05.389Z,26.06
2022-08-16T19:26:24.702Z,26.06
2022-08-16T19:29:28.729Z,26.00
2022-08-16T19:32:30.845Z,26.00
2022-08-16T19:35:33.848Z,26.00
2022-08-16T19:38:36.128Z,25.94
2022-08-16T19:41:43.470Z,25.94
2022-08-16T19:44:46.785Z,25.94
2022-08-16T19:47:50.975Z,25.94
2022-08-16T19:50:57.666Z,25.88
2022-08-16T19:53:59.777Z,25.81
2022-08-16T19:57:02.191Z,25.81
2022-08-16T20:00:12.579Z,25.75
2022-08-16T20:03:20.723Z,25.75
2022-08-16T20:06:34.880Z,25.69
2022-08-16T20:09:41.420Z,25.56
2022-08-16T20:12:43.697Z,25.38
2022-08-16T20:16:03.879Z,25.38
2022-08-16T20:19:06.060Z,25.44
2022-08-16T20:22:42.063Z,25.50
2022-08-16T20:25:49.571Z,25.56
2022-08-16T20:28:54.544Z,25.44
2022-08-16T20:31:57.136Z,25.56
2022-08-16T20:34:59.578Z,25.56
2022-08-16T20:38:03.936Z,25.38
2022-08-16T20:41:06.118Z,25.31
2022-08-16T20:44:10.137Z,25.31
2022-08-16T20:47:12.606Z,25.38
2022-08-16T20:50:14.685Z,25.31
2022-08-16T20:53:16.757Z,25.13
2022-08-16T20:56:19.051Z,25.13
2022-08-16T20:59:21.173Z,25.19
2022-08-16T21:02:26.674Z,25.31
2022-08-16T21:05:31.299Z,25.06
2022-08-16T21:08:52.067Z,25.00
2022-08-16T21:11:58.851Z,24.81
2022-08-16T21:15:08.273Z,25.00
2022-08-16T21:18:10.308Z,24.75
2022-08-16T21:21:12.607Z,24.63
2022-08-16T21:24:15.337Z,25.00
2022-08-16T21:27:18.451Z,24.94
2022-08-16T21:30:25.072Z,24.81
2022-08-16T21:33:32.692Z,24.63
2022-08-16T21:36:36.478Z,24.63
2022-08-16T21:39:39.762Z,24.75
2022-08-16T21:42:43.293Z,24.63
2022-08-16T21:45:46.760Z,24.75
2022-08-16T21:48:48.857Z,24.63
2022-08-16T21:51:51.316Z,24.69
2022-08-16T21:54:56.410Z,24.38
2022-08-16T21:57:59.294Z,24.38
2022-08-16T22:01:02.282Z,24.44
2022-08-16T22:04:36.825Z,24.56
2022-08-16T22:07:26.661Z,24.94
2022-08-16T22:11:05.770Z,25.06
2022-08-16T22:13:58.926Z,25.19
2022-08-16T22:17:01.601Z,25.19
2022-08-16T22:20:06.249Z,25.19
2022-08-16T22:23:24.155Z,25.25
2022-08-16T22:26:30.229Z,25.38
2022-08-16T22:29:33.395Z,25.31
2022-08-16T22:32:41.969Z,25.19
2022-08-16T22:35:48.339Z,25.25
2022-08-16T22:38:56.086Z,25.25
2022-08-16T22:42:04.682Z,25.19
2022-08-16T22:45:07.324Z,25.31
2022-08-16T22:48:10.140Z,25.13
2022-08-16T22:51:12.303Z,25.25
2022-08-16T22:54:40.938Z,25.25
2022-08-16T22:57:36.632Z,25.25
2022-08-16T23:00:38.777Z,25.13
2022-08-16T23:03:41.737Z,25.25
2022-08-16T23:06:43.769Z,25.31
2022-08-16T23:09:45.844Z,25.25
2022-08-16T23:12:54.316Z,25.38
2022-08-16T23:16:01.401Z,25.25
2022-08-16T23:19:12.360Z,25.19
2022-08-16T23:22:14.890Z,25.38
2022-08-16T23:25:26.765Z,25.25
2022-08-16T23:28:31.322Z,25.25
2022-08-16T23:31:34.579Z,25.13
2022-08-16T23:34:36.691Z,25.13
2022-08-16T23:37:39.611Z,25.25
2022-08-16T23:40:42.263Z,25.25
2022-08-16T23:43:44.647Z,25.25
2022-08-16T23:46:47.762Z,25.19
2022-08-16T23:50:01.529Z,25.25
2022-08-16T23:53:10.150Z,25.13
2022-08-16T23:56:15.806Z,25.31
2022-08-16T23:59:17.863Z,25.13
